Time;durP1;ratioP1;P1;durP2;ratioP2;P2;SDS_P1;SDS_P2;PMS_P1;PMS_P2;Temp;Humidity;BMP_temperature;BMP_pressure;BME280_temperature;BME280_humidity;BME280_pressure;Samples;Min_cycle;Max_cycle;Signal;HPM_P1;HPM_P2
2022/03/26 00:02:12;;;;;;;88.15;49.30;;;9.20;48.00;;;;;;5016458;28;20060;-59
2022/03/26 00:04:37;;;;;;;86.90;48.75;;;8.90;49.60;;;;;;5016537;28;20022;-59
2022/03/26 00:07:03;;;;;;;77.32;43.85;;;8.70;51.20;;;;;;5016581;28;20030;-59
2022/03/26 00:09:29;;;;;;;75.88;40.63;;;8.60;51.10;;;;;;5016349;28;20030;-58
2022/03/26 00:11:56;;;;;;;72.28;39.47;;;8.80;51.20;;;;;;5016213;28;20492;-59
2022/03/26 00:14:22;;;;;;;61.42;36.70;;;8.80;50.90;;;;;;5016356;28;20520;-58
2022/03/26 00:16:48;;;;;;;59.88;35.50;;;8.80;50.80;;;;;;5016244;28;20120;-57
2022/03/26 00:19:14;;;;;;;65.82;38.08;;;8.90;49.90;;;;;;5016144;28;20141;-58
2022/03/26 00:21:41;;;;;;;133.38;66.90;;;9.00;49.60;;;;;;5016120;28;20461;-58
2022/03/26 00:24:08;;;;;;;98.50;57.88;;;8.80;51.10;;;;;;5016238;28;20053;-58
2022/03/26 00:26:34;;;;;;;99.07;52.22;;;8.50;52.50;;;;;;5016052;28;20392;-59
2022/03/26 00:29:00;;;;;;;93.45;50.67;;;8.40;53.00;;;;;;5016103;28;20076;-59
2022/03/26 00:31:26;;;;;;;100.95;51.97;;;8.40;53.10;;;;;;5015992;28;20511;-59
2022/03/26 00:33:53;;;;;;;87.00;48.78;;;8.50;52.30;;;;;;5015877;28;20022;-59
2022/03/26 00:36:20;;;;;;;85.97;48.88;;;8.50;52.00;;;;;;5016057;28;20034;-59
2022/03/26 00:38:46;;;;;;;101.78;55.22;;;8.50;51.50;;;;;;5015718;28;20026;-58
2022/03/26 00:41:12;;;;;;;85.30;45.67;;;8.40;52.10;;;;;;5015736;28;20026;-59
2022/03/26 00:43:38;;;;;;;69.65;40.63;;;8.20;52.40;;;;;;5015783;28;20049;-59
2022/03/26 00:46:04;;;;;;;70.07;38.92;;;8.30;52.50;;;;;;5015694;28;20485;-58
2022/03/26 00:48:30;;;;;;;55.90;34.28;;;8.40;52.50;;;;;;5015550;28;20022;-59
2022/03/26 00:50:56;;;;;;;51.28;31.88;;;8.40;52.30;;;;;;5015522;28;20026;-59
2022/03/26 00:53:21;;;;;;;56.28;32.55;;;8.50;51.30;;;;;;5015395;28;20018;-59
2022/03/26 00:55:47;;;;;;;58.67;33.10;;;8.50;50.70;;;;;;5015700;28;20029;-59
2022/03/26 00:58:13;;;;;;;57.20;32.20;;;8.50;50.40;;;;;;5015343;28;20070;-55
2022/03/26 01:00:39;;;;;;;51.92;29.48;;;8.50;50.80;;;;;;5015406;28;20018;-59
2022/03/26 01:03:08;;;;;;;46.33;26.38;;;8.40;50.90;;;;;;5015655;28;20034;-59
2022/03/26 01:05:34;;;;;;;45.50;26.35;;;8.30;50.90;;;;;;5015284;28;20066;-59
2022/03/26 01:08:00;;;;;;;45.78;26.25;;;8.30;50.50;;;;;;5015115;28;20018;-59
2022/03/26 01:10:27;;;;;;;52.72;30.23;;;8.40;50.50;;;;;;5015369;28;20072;-56
2022/03/26 01:12:53;;;;;;;70.13;36.88;;;8.40;50.50;;;;;;5014177;28;20037;-59
2022/03/26 01:15:19;;;;;;;64.75;36.22;;;8.20;51.40;;;;;;5015005;28;20034;-58
2022/03/26 01:17:46;;;;;;;56.13;30.80;;;7.80;51.90;;;;;;5015057;28;20552;-57
2022/03/26 01:20:11;;;;;;;54.95;30.15;;;7.80;52.50;;;;;;5014957;28;20032;-59
2022/03/26 01:22:37;;;;;;;59.65;33.03;;;7.90;52.00;;;;;;5014840;28;20101;-57
2022/03/26 01:25:04;;;;;;;61.53;32.47;;;7.90;52.50;;;;;;5014980;28;20084;-57
2022/03/26 01:27:30;;;;;;;60.90;34.42;;;7.90;53.20;;;;;;5013617;28;20373;-58
2022/03/26 01:29:56;;;;;;;53.72;30.15;;;7.80;53.20;;;;;;5014819;28;20080;-56
2022/03/26 01:32:22;;;;;;;54.95;31.17;;;7.80;53.30;;;;;;5014955;28;20033;-58
2022/03/26 01:34:48;;;;;;;49.20;27.13;;;7.80;53.30;;;;;;5014819;28;20025;-57
2022/03/26 01:37:14;;;;;;;54.28;30.98;;;7.90;53.00;;;;;;5014455;28;20038;-59
2022/03/26 01:39:40;;;;;;;61.67;34.85;;;7.90;52.60;;;;;;5014998;28;20476;-58
2022/03/26 01:42:07;;;;;;;64.28;33.75;;;7.80;53.00;;;;;;5014698;28;20029;-58
2022/03/26 01:44:34;;;;;;;56.03;30.92;;;7.60;54.10;;;;;;5014804;28;20049;-58
2022/03/26 01:47:00;;;;;;;46.95;28.27;;;7.50;54.60;;;;;;5014615;28;20523;-58
2022/03/26 01:49:27;;;;;;;49.92;30.30;;;7.60;55.10;;;;;;5014554;28;20037;-59
2022/03/26 01:51:53;;;;;;;44.63;26.50;;;7.50;55.90;;;;;;5014258;28;20404;-58
2022/03/26 01:54:19;;;;;;;51.92;28.83;;;7.40;55.60;;;;;;5014484;28;20026;-59
2022/03/26 01:56:45;;;;;;;41.28;24.98;;;7.40;54.80;;;;;;5014411;28;20109;-59
2022/03/26 01:59:11;;;;;;;39.75;24.67;;;7.40;55.20;;;;;;5014274;28;20113;-59
2022/03/26 02:01:38;;;;;;;38.97;23.55;;;7.40;55.50;;;;;;5014492;28;20022;-59
2022/03/26 02:04:05;;;;;;;33.85;21.00;;;7.40;55.60;;;;;;5014340;28;20018;-58
2022/03/26 02:06:39;;;;;;;37.67;21.17;;;7.50;54.60;;;;;;5014005;28;20026;-58
2022/03/26 02:09:07;;;;;;;34.60;20.50;;;7.40;53.80;;;;;;5014315;28;20029;-57
2022/03/26 02:11:35;;;;;;;36.35;21.55;;;7.50;53.40;;;;;;5014231;28;20100;-58
2022/03/26 02:14:03;;;;;;;39.22;23.73;;;7.50;53.60;;;;;;5013896;28;20022;-57
2022/03/26 02:16:30;;;;;;;31.58;18.90;;;7.50;53.20;;;;;;5013964;28;20547;-59
2022/03/26 02:18:56;;;;;;;38.13;20.92;;;7.40;53.70;;;;;;5014124;28;20447;-59
2022/03/26 02:21:22;;;;;;;34.25;19.90;;;7.40;53.90;;;;;;5013758;28;20025;-58
2022/03/26 02:23:50;;;;;;;38.33;20.10;;;7.40;53.60;;;;;;5013760;28;20096;-59
2022/03/26 02:26:18;;;;;;;33.83;17.33;;;7.40;53.30;;;;;;5014056;28;20018;-59
2022/03/26 02:28:45;;;;;;;34.00;19.23;;;7.30;54.00;;;;;;5013798;28;20026;-59
2022/03/26 02:31:15;;;;;;;35.90;20.38;;;7.30;53.70;;;;;;5013978;28;20029;-59
2022/03/26 02:33:41;;;;;;;39.95;22.40;;;7.30;53.70;;;;;;5013857;28;20018;-58
2022/03/26 02:36:08;;;;;;;35.53;21.15;;;7.10;54.10;;;;;;5013487;28;20053;-57
2022/03/26 02:38:34;;;;;;;31.15;18.58;;;7.00;55.50;;;;;;5013857;28;20026;-59
2022/03/26 02:41:00;;;;;;;29.70;18.75;;;6.90;55.80;;;;;;5013744;28;20076;-59
2022/03/26 02:43:26;;;;;;;27.05;16.98;;;6.90;57.30;;;;;;5013602;28;20025;-59
2022/03/26 02:45:52;;;;;;;30.42;19.15;;;6.90;58.00;;;;;;5013692;28;20026;-59
2022/03/26 02:48:17;;;;;;;37.40;20.52;;;6.90;57.40;;;;;;5013650;28;20027;-58
2022/03/26 02:50:44;;;;;;;41.50;22.52;;;7.00;56.50;;;;;;5013347;28;20033;-57
2022/03/26 02:53:11;;;;;;;32.88;18.60;;;6.80;57.50;;;;;;5013615;28;20399;-58
2022/03/26 02:55:38;;;;;;;32.22;18.75;;;6.70;57.50;;;;;;5013544;28;20025;-59
2022/03/26 02:58:04;;;;;;;35.50;22.60;;;6.70;58.30;;;;;;5013617;28;20040;-58
2022/03/26 03:00:30;;;;;;;39.95;22.35;;;6.70;59.10;;;;;;5013642;28;20022;-58
2022/03/26 03:02:56;;;;;;;29.13;18.50;;;6.70;59.60;;;;;;5013467;28;20029;-58
2022/03/26 03:05:22;;;;;;;32.78;19.98;;;6.70;60.20;;;;;;5013137;28;20022;-56
2022/03/26 03:07:48;;;;;;;44.63;26.40;;;6.70;58.80;;;;;;5013548;28;20030;-57
2022/03/26 03:10:16;;;;;;;32.55;20.27;;;6.70;57.90;;;;;;5013408;28;20018;-59
2022/03/26 03:12:50;;;;;;;33.05;19.55;;;6.60;59.10;;;;;;5013644;28;20060;-59
2022/03/26 03:15:19;;;;;;;32.45;19.00;;;6.60;58.60;;;;;;5013424;28;20535;-59
2022/03/26 03:17:46;;;;;;;30.90;19.23;;;6.60;58.60;;;;;;5013332;28;20089;-59
2022/03/26 03:20:13;;;;;;;30.50;18.20;;;6.60;57.10;;;;;;5013294;28;20025;-58
2022/03/26 03:22:39;;;;;;;33.15;19.17;;;6.60;57.10;;;;;;5013349;28;20022;-58
2022/03/26 03:25:06;;;;;;;33.05;19.95;;;6.70;56.60;;;;;;5013385;28;20388;-59
2022/03/26 03:27:32;;;;;;;29.85;18.48;;;6.70;56.30;;;;;;5013208;28;20029;-59
2022/03/26 03:29:58;;;;;;;29.33;17.42;;;6.60;56.70;;;;;;5013235;28;20487;-57
2022/03/26 03:32:24;;;;;;;33.85;18.23;;;6.50;56.70;;;;;;5012992;28;20018;-58
2022/03/26 03:34:51;;;;;;;29.92;17.63;;;6.60;57.00;;;;;;5013950;28;20441;-58
2022/03/26 03:37:17;;;;;;;31.42;17.38;;;6.50;57.30;;;;;;5017096;28;20034;-58
2022/03/26 03:39:43;;;;;;;33.22;18.80;;;6.40;57.80;;;;;;5017012;28;20101;-58
2022/03/26 03:42:09;;;;;;;33.58;18.10;;;6.40;57.70;;;;;;5016942;28;20030;-57
2022/03/26 03:44:35;;;;;;;24.42;14.57;;;6.40;57.90;;;;;;5017153;28;20026;-58
2022/03/26 03:47:01;;;;;;;28.83;17.77;;;6.40;58.40;;;;;;5016689;28;20036;-58
2022/03/26 03:49:29;;;;;;;24.05;15.40;;;6.40;58.00;;;;;;5016860;28;20021;-59
2022/03/26 03:51:55;;;;;;;24.60;15.10;;;6.40;58.00;;;;;;5016684;28;20054;-58
2022/03/26 03:54:20;;;;;;;23.40;14.75;;;6.40;57.60;;;;;;5016678;28;20030;-58
2022/03/26 03:56:46;;;;;;;29.80;18.00;;;6.40;57.30;;;;;;5016578;28;20026;-59
2022/03/26 03:59:12;;;;;;;23.58;14.98;;;6.40;57.70;;;;;;5016445;28;20022;-58
2022/03/26 04:01:38;;;;;;;22.67;12.65;;;6.30;57.90;;;;;;5016346;28;20572;-57
2022/03/26 04:04:04;;;;;;;20.45;12.52;;;6.30;57.90;;;;;;5016595;28;20022;-58
2022/03/26 04:06:30;;;;;;;24.25;13.38;;;6.30;58.80;;;;;;5016728;28;20451;-58
2022/03/26 04:08:55;;;;;;;30.77;19.00;;;6.20;58.50;;;;;;5016539;28;20022;-57
2022/03/26 04:11:21;;;;;;;32.75;19.52;;;6.20;58.90;;;;;;5016570;28;20045;-59
2022/03/26 04:13:50;;;;;;;25.27;15.30;;;6.00;61.80;;;;;;5016205;28;20546;-57
2022/03/26 04:16:16;;;;;;;24.27;14.75;;;5.90;62.40;;;;;;5015945;28;20038;-59
2022/03/26 04:18:42;;;;;;;24.27;14.57;;;5.90;62.40;;;;;;5016472;28;20021;-57
2022/03/26 04:21:08;;;;;;;27.65;16.42;;;6.00;61.50;;;;;;5016183;28;20174;-58
2022/03/26 04:23:33;;;;;;;29.95;17.40;;;5.90;61.40;;;;;;5016120;28;20077;-59
2022/03/26 04:25:59;;;;;;;25.90;15.50;;;6.00;60.60;;;;;;5016414;28;20477;-58
2022/03/26 04:28:26;;;;;;;30.15;18.02;;;5.90;62.40;;;;;;5016110;28;20487;-57
2022/03/26 04:30:52;;;;;;;23.65;15.68;;;5.90;63.70;;;;;;5015819;28;20032;-58
2022/03/26 04:33:17;;;;;;;29.60;17.25;;;5.90;64.10;;;;;;5015985;28;20096;-59
2022/03/26 04:35:43;;;;;;;24.98;15.00;;;5.90;63.90;;;;;;5015945;28;20081;-57
2022/03/26 04:38:09;;;;;;;26.67;17.45;;;5.90;64.60;;;;;;5015844;28;20026;-57
2022/03/26 04:40:34;;;;;;;39.85;22.83;;;5.90;63.70;;;;;;5015816;28;20025;-59
2022/03/26 04:43:00;;;;;;;34.85;20.52;;;5.80;62.70;;;;;;5015799;28;20366;-59
2022/03/26 04:45:26;;;;;;;33.65;21.23;;;5.70;63.00;;;;;;5015302;28;20068;-58
2022/03/26 04:47:52;;;;;;;35.60;21.02;;;5.60;65.70;;;;;;5015839;28;20029;-59
2022/03/26 04:50:18;;;;;;;44.92;27.02;;;5.60;66.40;;;;;;5015674;28;20033;-58
2022/03/26 04:52:43;;;;;;;49.63;28.88;;;5.60;68.60;;;;;;5015544;28;20109;-58
2022/03/26 04:55:11;;;;;;;48.50;28.95;;;5.30;71.60;;;;;;5015501;28;20022;-58
2022/03/26 04:57:41;;;;;;;41.67;24.63;;;5.20;73.50;;;;;;5015375;28;20062;-58
2022/03/26 05:00:13;;;;;;;37.83;22.52;;;5.20;72.90;;;;;;5015277;28;20025;-56
2022/03/26 05:02:39;;;;;;;35.83;21.70;;;5.30;71.80;;;;;;5015556;28;20389;-57
2022/03/26 05:05:10;;;;;;;52.30;27.35;;;5.50;70.70;;;;;;5015643;28;20022;-57
2022/03/26 05:07:46;;;;;;;55.35;28.05;;;5.60;68.70;;;;;;5015226;28;20029;-59
2022/03/26 05:10:12;;;;;;;46.10;25.08;;;5.60;68.20;;;;;;5015380;28;20026;-57
2022/03/26 05:12:38;;;;;;;41.95;24.83;;;5.70;68.70;;;;;;5015306;28;20029;-58
2022/03/26 05:15:04;;;;;;;40.88;22.60;;;5.70;67.80;;;;;;5014828;28;20049;-59
2022/03/26 05:17:30;;;;;;;48.97;27.65;;;5.80;66.80;;;;;;5015077;28;20038;-58
2022/03/26 05:19:56;;;;;;;79.60;41.28;;;5.90;65.70;;;;;;5015177;28;20101;-58
2022/03/26 05:22:21;;;;;;;114.30;57.78;;;5.80;66.60;;;;;;5015009;28;20029;-58
2022/03/26 05:24:47;;;;;;;95.03;47.33;;;5.70;70.00;;;;;;5015121;28;20428;-58
2022/03/26 05:27:13;;;;;;;95.85;51.95;;;5.60;70.90;;;;;;5015115;28;20109;-58
2022/03/26 05:29:38;;;;;;;88.50;48.50;;;5.60;71.60;;;;;;5014663;28;20028;-58
2022/03/26 05:32:06;;;;;;;78.70;43.97;;;5.50;71.80;;;;;;5015174;28;20431;-58
2022/03/26 05:34:33;;;;;;;66.78;39.50;;;5.70;71.30;;;;;;5014812;28;20084;-58
2022/03/26 05:36:58;;;;;;;68.03;38.88;;;5.70;71.50;;;;;;5014637;28;20038;-58
2022/03/26 05:39:24;;;;;;;149.50;81.03;;;5.90;68.80;;;;;;5014756;28;20025;-58
2022/03/26 05:41:50;;;;;;;185.32;110.88;;;5.80;70.40;;;;;;5014719;28;20052;-57
2022/03/26 05:44:16;;;;;;;201.05;118.03;;;5.60;74.80;;;;;;5014458;28;20472;-58
2022/03/26 05:46:42;;;;;;;192.82;114.82;;;5.40;77.10;;;;;;5014770;28;20037;-58
2022/03/26 05:49:09;;;;;;;166.38;99.20;;;5.30;77.40;;;;;;5014662;28;20380;-57
2022/03/26 05:51:34;;;;;;;160.35;99.40;;;5.30;77.90;;;;;;5014543;28;20096;-57
2022/03/26 05:54:00;;;;;;;156.10;98.03;;;5.30;77.70;;;;;;5014501;28;20503;-58
2022/03/26 05:56:26;;;;;;;147.82;83.40;;;5.30;77.80;;;;;;5014431;28;20108;-59
2022/03/26 05:58:51;;;;;;;101.05;62.53;;;5.40;78.80;;;;;;5013647;28;20049;-59
2022/03/26 06:01:17;;;;;;;113.43;66.07;;;5.20;82.30;;;;;;5014285;28;20018;-59
2022/03/26 06:03:43;;;;;;;109.07;65.40;;;5.10;83.40;;;;;;5014333;28;20100;-58
2022/03/26 06:06:09;;;;;;;137.43;79.70;;;5.10;83.80;;;;;;5014241;28;20484;-58
2022/03/26 06:08:35;;;;;;;125.93;71.55;;;5.20;84.00;;;;;;5014133;28;20033;-58
2022/03/26 06:11:00;;;;;;;147.00;86.05;;;5.30;84.30;;;;;;5014341;28;20507;-58
2022/03/26 06:13:26;;;;;;;133.35;76.65;;;7.30;74.90;;;;;;5013901;28;20026;-58
2022/03/26 06:15:52;;;;;;;115.72;71.00;;;10.10;59.80;;;;;;5013799;28;20050;-59
2022/03/26 06:18:17;;;;;;;142.93;86.72;;;12.00;53.80;;;;;;5014186;28;20117;-59
2022/03/26 06:20:43;;;;;;;120.03;71.82;;;13.60;48.70;;;;;;5013948;28;20026;-58
2022/03/26 06:23:09;;;;;;;164.98;99.45;;;14.70;45.70;;;;;;5014267;28;20018;-58
2022/03/26 06:25:35;;;;;;;179.43;110.35;;;15.40;44.40;;;;;;5013726;28;20048;-59
2022/03/26 06:28:01;;;;;;;165.68;101.45;;;16.10;42.80;;;;;;5013931;28;20061;-57
2022/03/26 06:30:26;;;;;;;154.27;92.57;;;16.90;41.00;;;;;;5013949;28;20018;-58
2022/03/26 06:32:52;;;;;;;163.25;98.03;;;17.50;39.50;;;;;;5013773;28;20018;-58
2022/03/26 06:35:18;;;;;;;145.98;91.22;;;17.60;39.30;;;;;;5013728;28;20385;-58
2022/03/26 06:37:44;;;;;;;143.60;89.53;;;18.10;38.80;;;;;;5013788;28;20370;-59
2022/03/26 06:40:10;;;;;;;135.93;87.13;;;18.90;37.40;;;;;;5013654;28;20037;-59
2022/03/26 06:42:36;;;;;;;138.18;87.05;;;19.20;37.20;;;;;;5013524;28;20148;-59
2022/03/26 06:45:02;;;;;;;117.82;75.90;;;19.90;36.20;;;;;;5013692;28;20083;-60
2022/03/26 06:47:30;;;;;;;127.10;83.28;;;20.30;35.80;;;;;;5013630;28;20033;-59
2022/03/26 06:49:55;;;;;;;113.00;72.65;;;20.90;34.90;;;;;;5013651;28;20022;-59
2022/03/26 06:52:23;;;;;;;109.25;67.47;;;21.00;34.30;;;;;;5013855;28;20105;-60
2022/03/26 06:54:49;;;;;;;88.75;57.60;;;21.60;33.90;;;;;;5013553;28;20029;-60
2022/03/26 06:57:15;;;;;;;115.28;69.70;;;22.50;32.90;;;;;;5013225;28;20507;-60
2022/03/26 06:59:41;;;;;;;103.90;62.90;;;23.20;31.90;;;;;;5013471;28;20026;-60
2022/03/26 07:02:07;;;;;;;90.43;55.03;;;23.20;31.90;;;;;;5013425;28;20053;-59
2022/03/26 07:04:32;;;;;;;89.20;55.13;;;23.70;31.50;;;;;;5013504;28;20045;-59
2022/03/26 07:06:58;;;;;;;88.30;55.17;;;24.40;30.90;;;;;;5013465;28;20030;-60
2022/03/26 07:09:24;;;;;;;92.03;58.08;;;25.00;30.20;;;;;;5013469;28;20037;-59
2022/03/26 07:11:50;;;;;;;79.93;51.50;;;25.20;29.90;;;;;;5017242;28;20022;-59
2022/03/26 07:14:17;;;;;;;71.85;48.20;;;25.50;29.30;;;;;;5017299;28;20022;-59
2022/03/26 07:16:43;;;;;;;60.97;43.38;;;25.80;29.50;;;;;;5017478;28;20041;-59
2022/03/26 07:19:10;;;;;;;52.83;38.03;;;26.60;29.20;;;;;;5017290;28;20061;-59
2022/03/26 07:21:37;;;;;;;55.40;38.55;;;27.50;28.30;;;;;;5017554;28;20151;-59
2022/03/26 07:24:04;;;;;;;56.92;37.78;;;28.10;28.10;;;;;;5017359;28;20026;-59
2022/03/26 07:26:30;;;;;;;53.17;37.88;;;28.60;27.30;;;;;;5017120;28;20030;-59
2022/03/26 07:28:56;;;;;;;45.30;33.72;;;28.70;27.20;;;;;;5017272;28;20506;-59
2022/03/26 07:31:22;;;;;;;45.88;34.80;;;29.10;27.20;;;;;;5017163;28;20105;-59
2022/03/26 07:33:48;;;;;;;39.22;30.67;;;29.80;26.80;;;;;;5015791;28;20392;-59
2022/03/26 07:36:15;;;;;;;40.15;31.95;;;29.80;26.30;;;;;;5016969;28;20022;-59
2022/03/26 07:38:41;;;;;;;39.38;31.40;;;29.40;26.30;;;;;;5017051;28;20030;-59
2022/03/26 07:41:07;;;;;;;35.70;29.13;;;29.90;26.40;;;;;;5016876;28;20507;-59
2022/03/26 07:43:34;;;;;;;31.95;26.35;;;30.40;26.40;;;;;;5017196;28;20435;-59
2022/03/26 07:46:00;;;;;;;36.30;28.15;;;30.30;25.80;;;;;;5016894;28;20026;-59
2022/03/26 07:48:26;;;;;;;32.42;25.42;;;30.70;26.40;;;;;;5016689;28;20097;-60
2022/03/26 07:50:52;;;;;;;30.67;24.33;;;30.90;25.80;;;;;;5016799;28;20543;-59
2022/03/26 07:53:18;;;;;;;26.05;22.27;;;31.50;26.70;;;;;;5016590;28;20033;-60
2022/03/26 07:55:44;;;;;;;26.20;21.25;;;31.80;26.70;;;;;;5016681;28;20076;-60
2022/03/26 07:58:10;;;;;;;24.83;20.45;;;32.20;26.30;;;;;;5016449;28;20026;-59
2022/03/26 08:00:37;;;;;;;25.27;20.15;;;32.10;25.50;;;;;;5016658;28;20358;-60
2022/03/26 08:03:03;;;;;;;25.30;19.70;;;32.30;26.30;;;;;;5016593;28;20029;-60
2022/03/26 08:05:28;;;;;;;26.77;19.73;;;32.80;26.10;;;;;;5016486;28;20029;-60
2022/03/26 08:07:54;;;;;;;26.40;19.05;;;33.00;25.80;;;;;;5016372;28;20022;-60
2022/03/26 08:10:20;;;;;;;20.65;17.05;;;32.60;25.90;;;;;;5016525;28;20056;-60
2022/03/26 08:12:46;;;;;;;19.67;16.45;;;33.00;26.00;;;;;;5016820;28;20045;-60
2022/03/26 08:15:11;;;;;;;16.30;14.57;;;33.30;25.80;;;;;;5016232;28;20065;-60
2022/03/26 08:17:37;;;;;;;18.25;15.75;;;33.40;25.70;;;;;;5016280;28;20022;-60
2022/03/26 08:20:03;;;;;;;21.67;15.77;;;33.10;25.20;;;;;;5016161;28;20030;-60
2022/03/26 08:22:29;;;;;;;15.30;13.70;;;33.00;25.80;;;;;;5015779;28;20101;-60
2022/03/26 08:24:55;;;;;;;17.30;14.20;;;33.50;25.80;;;;;;5016180;28;20499;-60
2022/03/26 08:27:22;;;;;;;16.52;14.10;;;33.40;24.80;;;;;;5016106;28;20033;-60
2022/03/26 08:29:49;;;;;;;16.40;13.68;;;33.30;25.00;;;;;;5016408;28;20033;-60
2022/03/26 08:32:15;;;;;;;17.35;14.52;;;33.40;25.70;;;;;;5016001;28;20018;-60
2022/03/26 08:34:41;;;;;;;15.98;14.27;;;33.60;25.30;;;;;;5015989;28;20105;-60
2022/03/26 08:37:07;;;;;;;18.65;15.27;;;33.60;24.50;;;;;;5015600;28;20032;-60
2022/03/26 08:39:32;;;;;;;17.85;14.65;;;33.30;24.90;;;;;;5015913;28;20105;-60
2022/03/26 08:41:58;;;;;;;18.00;14.82;;;33.30;24.80;;;;;;5015880;28;20096;-60
2022/03/26 08:44:24;;;;;;;17.58;13.52;;;33.00;24.40;;;;;;5015746;28;20072;-60
2022/03/26 08:46:50;;;;;;;15.50;12.68;;;32.70;24.70;;;;;;5015837;28;20038;-60
2022/03/26 08:49:16;;;;;;;14.10;11.88;;;32.60;24.70;;;;;;5015732;28;20029;-60
2022/03/26 08:51:41;;;;;;;15.82;11.77;;;32.50;24.60;;;;;;5015355;28;20025;-60
2022/03/26 08:54:07;;;;;;;11.52;10.25;;;32.40;25.00;;;;;;5015762;28;20102;-60
2022/03/26 08:56:33;;;;;;;11.20;10.10;;;32.20;24.30;;;;;;5015507;28;20521;-60
2022/03/26 08:58:59;;;;;;;12.07;10.10;;;31.70;24.10;;;;;;5015365;28;20112;-60
2022/03/26 09:01:24;;;;;;;9.20;8.10;;;31.30;24.40;;;;;;5015765;28;20057;-61
2022/03/26 09:03:50;;;;;;;9.43;8.07;;;31.20;24.60;;;;;;5015434;28;20018;-61
2022/03/26 09:06:16;;;;;;;14.45;9.43;;;31.20;24.40;;;;;;5015489;28;20022;-61
2022/03/26 09:08:42;;;;;;;10.85;8.27;;;31.10;24.10;;;;;;5015355;28;20032;-60
2022/03/26 09:11:08;;;;;;;10.40;9.30;;;30.50;25.10;;;;;;5015496;28;20026;-60
2022/03/26 09:13:34;;;;;;;11.52;9.52;;;30.00;25.30;;;;;;5015373;28;20072;-61
2022/03/26 09:16:00;;;;;;;12.30;10.27;;;29.40;26.80;;;;;;5014881;28;20049;-61
2022/03/26 09:18:27;;;;;;;10.63;9.50;;;28.80;26.10;;;;;;5015280;28;20539;-61
2022/03/26 09:20:53;;;;;;;12.15;10.50;;;28.70;25.20;;;;;;5015007;28;20033;-60
2022/03/26 09:23:19;;;;;;;13.65;11.18;;;28.60;25.10;;;;;;5014976;28;20482;-61
2022/03/26 09:25:45;;;;;;;12.85;9.43;;;28.70;25.10;;;;;;5014986;28;20029;-60
2022/03/26 09:28:10;;;;;;;10.10;7.78;;;28.30;27.70;;;;;;5015077;28;20022;-61
2022/03/26 09:30:36;;;;;;;10.77;8.70;;;27.70;26.40;;;;;;5014831;28;20018;-59
2022/03/26 09:33:03;;;;;;;8.10;7.13;;;27.30;27.20;;;;;;5014071;28;20021;-60
2022/03/26 09:35:29;;;;;;;7.22;6.53;;;27.30;26.60;;;;;;5014884;28;20488;-60
2022/03/26 09:37:56;;;;;;;10.88;6.88;;;27.40;25.50;;;;;;5014655;28;20038;-60
2022/03/26 09:40:23;;;;;;;12.20;8.95;;;27.60;27.50;;;;;;5014734;28;20507;-60
2022/03/26 09:42:50;;;;;;;10.88;9.68;;;27.50;26.40;;;;;;5014845;28;20022;-61
2022/03/26 09:45:17;;;;;;;13.63;10.80;;;27.40;27.40;;;;;;5014666;28;20084;-61
2022/03/26 09:47:43;;;;;;;16.27;13.52;;;27.20;26.30;;;;;;5014806;28;20452;-61
2022/03/26 09:50:11;;;;;;;17.95;14.15;;;27.20;27.20;;;;;;5014536;28;20041;-60
2022/03/26 09:52:37;;;;;;;18.88;15.52;;;27.10;27.20;;;;;;5014534;28;20026;-60
2022/03/26 09:55:04;;;;;;;17.92;14.00;;;27.10;26.20;;;;;;5014602;28;20377;-61
2022/03/26 09:57:31;;;;;;;16.83;12.48;;;27.40;26.70;;;;;;5014343;28;20105;-61
2022/03/26 09:59:57;;;;;;;14.43;12.23;;;27.20;26.90;;;;;;5014504;28;20435;-61
2022/03/26 10:02:26;;;;;;;13.13;10.25;;;27.20;28.90;;;;;;5014317;28;20084;-61
2022/03/26 10:04:52;;;;;;;12.85;10.77;;;27.40;28.00;;;;;;5014203;28;20117;-60
2022/03/26 10:07:28;;;;;;;14.55;10.30;;;27.30;25.90;;;;;;5014336;28;20030;-61
2022/03/26 10:09:55;;;;;;;11.55;10.35;;;27.10;26.30;;;;;;5014576;28;20026;-61
2022/03/26 10:12:22;;;;;;;11.75;9.70;;;27.00;29.30;;;;;;5014313;28;20022;-60
2022/03/26 10:14:53;;;;;;;12.32;9.75;;;27.20;28.20;;;;;;5014009;28;20077;-62
2022/03/26 10:17:20;;;;;;;10.60;8.52;;;27.50;29.00;;;;;;5013988;28;20034;-61
2022/03/26 10:19:48;;;;;;;10.30;8.65;;;27.90;27.50;;;;;;5013830;28;20029;-62
2022/03/26 10:22:26;;;;;;;9.98;8.93;;;28.00;25.90;;;;;;5013968;28;20131;-61
2022/03/26 10:24:53;;;;;;;9.48;7.50;;;28.10;27.10;;;;;;5014008;28;20113;-62
2022/03/26 10:27:19;;;;;;;11.27;7.15;;;28.40;28.80;;;;;;5014047;28;20606;-61
2022/03/26 10:29:49;;;;;;;11.52;7.97;;;27.90;25.00;;;;;;5013848;28;20021;-61
2022/03/26 10:32:45;;;;;;;9.88;7.38;;;27.40;26.90;;;;;;5013970;28;20022;-62
2022/03/26 10:35:24;;;;;;;8.75;7.18;;;27.60;27.40;;;;;;5013659;28;20492;-61
2022/03/26 10:37:55;;;;;;;7.63;6.78;;;28.00;26.10;;;;;;5014008;28;20113;-61
2022/03/26 10:40:29;;;;;;;6.75;6.05;;;28.40;26.70;;;;;;5014095;28;20048;-61
2022/03/26 10:42:57;;;;;;;6.25;5.43;;;28.70;25.60;;;;;;5013737;28;20140;-61
2022/03/26 10:45:23;;;;;;;6.82;5.53;;;28.90;25.40;;;;;;5013345;28;20022;-62
2022/03/26 10:47:52;;;;;;;6.68;5.65;;;28.60;25.30;;;;;;5013662;28;20096;-61
2022/03/26 10:50:18;;;;;;;6.55;5.40;;;28.50;24.30;;;;;;5013703;28;20026;-62
2022/03/26 10:52:44;;;;;;;7.07;5.82;;;28.80;24.90;;;;;;5013563;28;20026;-60
2022/03/26 10:55:18;;;;;;;5.82;5.32;;;28.70;27.00;;;;;;5013714;28;20037;-62
2022/03/26 10:57:45;;;;;;;7.68;5.90;;;28.70;26.20;;;;;;5012177;28;20378;-61
2022/03/26 11:00:13;;;;;;;8.48;6.90;;;28.90;24.70;;;;;;5013507;28;20049;-61
2022/03/26 11:02:39;;;;;;;5.82;4.88;;;29.20;24.50;;;;;;5013634;28;20034;-61
2022/03/26 11:05:06;;;;;;;6.47;5.63;;;29.00;24.60;;;;;;5013526;28;20029;-60
2022/03/26 11:07:35;;;;;;;5.55;4.30;;;28.70;24.00;;;;;;5013425;28;20160;-61
2022/03/26 11:10:07;;;;;;;4.72;3.70;;;28.70;24.00;;;;;;5013486;28;20026;-61
2022/03/26 11:12:34;;;;;;;5.40;4.35;;;28.70;23.10;;;;;;5013477;28;20107;-60
2022/03/26 11:15:03;;;;;;;7.55;4.70;;;29.10;24.70;;;;;;5013134;28;20050;-60
2022/03/26 11:18:05;;;;;;;4.90;4.22;;;28.90;24.50;;;;;;5013208;28;20038;-61
2022/03/26 11:20:40;;;;;;;4.97;4.47;;;28.30;25.10;;;;;;5013459;28;20026;-61
2022/03/26 11:23:39;;;;;;;4.65;4.22;;;28.20;24.20;;;;;;5013310;28;20034;-61
2022/03/26 11:26:40;;;;;;;6.60;4.90;;;28.50;24.20;;;;;;5013412;28;20030;-62
2022/03/26 11:29:20;;;;;;;6.53;5.20;;;28.90;22.60;;;;;;5013384;28;20030;-62
2022/03/26 11:32:05;;;;;;;5.60;4.93;;;27.40;23.90;;;;;;5012961;28;20037;-61
2022/03/26 11:34:35;;;;;;;4.97;4.40;;;27.30;25.10;;;;;;5013276;28;20540;-62
2022/03/26 11:37:11;;;;;;;5.95;4.40;;;27.60;25.00;;;;;;5013111;28;20026;-61
2022/03/26 11:39:48;;;;;;;10.00;4.82;;;27.90;23.90;;;;;;5013373;28;20110;-61
2022/03/26 11:42:21;;;;;;;4.38;4.00;;;28.30;26.50;;;;;;5013082;28;20388;-62
2022/03/26 11:50:41;;;;;;;7.10;4.30;;;28.50;25.90;;;;;;5013110;28;20057;-62
2022/03/26 11:50:42;;;;;;;5.07;4.57;;;28.70;23.70;;;;;;5013407;28;20021;-62
2022/03/26 11:53:09;;;;;;;6.88;4.57;;;29.30;22.70;;;;;;5013186;28;20026;-62
2022/03/26 11:55:47;;;;;;;5.30;4.38;;;29.60;22.70;;;;;;5013384;28;20029;-60
2022/03/26 11:58:15;;;;;;;4.75;3.92;;;29.90;22.80;;;;;;5016776;28;20038;-62
2022/03/26 12:01:03;;;;;;;4.05;3.65;;;29.70;23.80;;;;;;5016534;28;20113;-60
2022/03/26 12:03:50;;;;;;;4.38;3.97;;;29.60;23.20;;;;;;5016751;28;20026;-63
2022/03/26 12:06:37;;;;;;;7.28;5.15;;;29.10;22.80;;;;;;5016194;28;20100;-61
2022/03/26 12:09:03;;;;;;;9.05;6.68;;;29.40;22.60;;;;;;5016522;28;20053;-61
2022/03/26 12:11:34;;;;;;;6.28;4.72;;;29.60;22.60;;;;;;5016730;28;20053;-61
2022/03/26 12:14:09;;;;;;;7.25;5.32;;;29.20;21.80;;;;;;5016052;28;20040;-60
2022/03/26 12:16:50;;;;;;;6.72;5.10;;;29.10;22.50;;;;;;5016274;28;20033;-62
2022/03/26 12:19:39;;;;;;;7.55;4.78;;;29.30;23.20;;;;;;5016344;28;20029;-61
2022/03/26 12:22:26;;;;;;;4.50;4.10;;;29.60;24.20;;;;;;5016270;28;20484;-63
2022/03/26 12:24:57;;;;;;;6.95;4.25;;;29.60;23.40;;;;;;5016322;28;20452;-62
2022/03/26 12:27:24;;;;;;;7.30;4.75;;;29.80;24.60;;;;;;5016059;28;20037;-62
2022/03/26 12:29:54;;;;;;;6.28;4.63;;;30.00;23.40;;;;;;5016186;28;20024;-60
2022/03/26 12:32:19;;;;;;;5.95;4.13;;;29.70;25.10;;;;;;5016109;28;20101;-59
2022/03/26 12:35:02;;;;;;;5.90;4.50;;;29.20;23.70;;;;;;5015915;28;20057;-59
2022/03/26 12:37:28;;;;;;;5.97;4.95;;;29.00;26.40;;;;;;5016134;28;20040;-61
2022/03/26 12:39:55;;;;;;;4.50;4.10;;;28.90;27.00;;;;;;5015965;28;20029;-61
2022/03/26 12:42:23;;;;;;;5.07;3.97;;;29.00;26.60;;;;;;5015866;28;20022;-61